Bulverde, Texas
Current Conditions -  °F | °C
As of 3:51 AM on Monday 26 Jan 2015 (Local Time) from KSAT Reporting Station
Scattered Clouds Scattered Clouds  
Wind Chill: 41°   Ceiling: Unl
Heat Index: 41°   Visibility: 10mi
Dew Point: 34°   Wind: 3mph
Humidity: 76%   Direction: 310°NW
Pressure: 30.23"   Gusts: NA
Location:  29.74°N, 98.45°W
Report Text: KSAT 260951Z 31003KT 10SM SCT250 05/01 A3023 RMK AO2 SLP227 T00500011
Loading
Personal Weather Stations






























Interactive Weather Map New forecast layout! Learn more

10-Day Weather Forecast

Advertisements
Track Severe Weather on mobile